sensor_id;sensor_type;location;lat;lon;timestamp;temperature;humidity
1179;DHT22;578;48.408;10.004;2022-10-18T00:01:05;10.00;99.90
1179;DHT22;578;48.408;10.004;2022-10-18T00:03:33;10.00;99.90
1179;DHT22;578;48.408;10.004;2022-10-18T00:06:02;10.00;99.90
1179;DHT22;578;48.408;10.004;2022-10-18T00:08:29;10.00;99.90
1179;DHT22;578;48.408;10.004;2022-10-18T00:10:55;10.00;99.90
1179;DHT22;578;48.408;10.004;2022-10-18T00:13:22;10.00;99.90
1179;DHT22;578;48.408;10.004;2022-10-18T00:15:51;10.00;99.90
1179;DHT22;578;48.408;10.004;2022-10-18T00:18:18;9.90;99.90
1179;DHT22;578;48.408;10.004;2022-10-18T00:20:45;9.90;99.90
1179;DHT22;578;48.408;10.004;2022-10-18T00:23:13;9.90;99.90
1179;DHT22;578;48.408;10.004;2022-10-18T00:25:40;9.80;99.90
1179;DHT22;578;48.408;10.004;2022-10-18T00:28:06;9.80;99.90
1179;DHT22;578;48.408;10.004;2022-10-18T00:30:33;9.80;99.90
1179;DHT22;578;48.408;10.004;2022-10-18T00:33:00;9.80;99.90
1179;DHT22;578;48.408;10.004;2022-10-18T00:35:26;9.80;99.90
1179;DHT22;578;48.408;10.004;2022-10-18T00:37:53;9.90;99.90
1179;DHT22;578;48.408;10.004;2022-10-18T00:40:21;10.00;99.90
1179;DHT22;578;48.408;10.004;2022-10-18T00:42:48;9.90;99.90
1179;DHT22;578;48.408;10.004;2022-10-18T00:45:19;10.00;99.90
1179;DHT22;578;48.408;10.004;2022-10-18T00:47:50;10.00;99.90
1179;DHT22;578;48.408;10.004;2022-10-18T00:50:19;10.10;99.90
1179;DHT22;578;48.408;10.004;2022-10-18T00:52:50;10.00;99.90
1179;DHT22;578;48.408;10.004;2022-10-18T00:55:17;10.00;99.90
1179;DHT22;578;48.408;10.004;2022-10-18T00:57:46;10.00;99.90
1179;DHT22;578;48.408;10.004;2022-10-18T01:00:14;9.90;99.90
1179;DHT22;578;48.408;10.004;2022-10-18T01:02:42;9.90;99.90
1179;DHT22;578;48.408;10.004;2022-10-18T01:05:11;9.80;99.90
1179;DHT22;578;48.408;10.004;2022-10-18T01:07:57;9.80;99.90
1179;DHT22;578;48.408;10.004;2022-10-18T01:10:32;9.80;99.90
1179;DHT22;578;48.408;10.004;2022-10-18T01:13:09;9.90;99.90
1179;DHT22;578;48.408;10.004;2022-10-18T01:15:46;9.80;99.90
1179;DHT22;578;48.408;10.004;2022-10-18T01:18:22;9.80;99.90
1179;DHT22;578;48.408;10.004;2022-10-18T01:21:01;9.80;99.90
1179;DHT22;578;48.408;10.004;2022-10-18T01:23:44;9.80;99.90
1179;DHT22;578;48.408;10.004;2022-10-18T01:26:26;9.80;99.90
1179;DHT22;578;48.408;10.004;2022-10-18T01:29:04;9.90;99.90
1179;DHT22;578;48.408;10.004;2022-10-18T01:31:38;9.70;99.90
1179;DHT22;578;48.408;10.004;2022-10-18T01:34:11;9.70;99.90
1179;DHT22;578;48.408;10.004;2022-10-18T01:36:39;9.80;99.90
1179;DHT22;578;48.408;10.004;2022-10-18T01:39:10;9.90;99.90
1179;DHT22;578;48.408;10.004;2022-10-18T01:41:39;9.90;99.90
1179;DHT22;578;48.408;10.004;2022-10-18T01:44:09;9.90;99.90
1179;DHT22;578;48.408;10.004;2022-10-18T01:46:38;9.90;99.90
1179;DHT22;578;48.408;10.004;2022-10-18T01:49:06;10.00;99.90
1179;DHT22;578;48.408;10.004;2022-10-18T01:51:33;10.00;99.90
1179;DHT22;578;48.408;10.004;2022-10-18T01:54:00;10.00;99.90
1179;DHT22;578;48.408;10.004;2022-10-18T01:56:38;10.00;99.90
1179;DHT22;578;48.408;10.004;2022-10-18T02:02:01;10.00;99.90
1179;DHT22;578;48.408;10.004;2022-10-18T02:04:39;10.10;99.90
1179;DHT22;578;48.408;10.004;2022-10-18T02:07:13;10.10;99.90
1179;DHT22;578;48.408;10.004;2022-10-18T02:09:45;10.20;99.90
1179;DHT22;578;48.408;10.004;2022-10-18T02:12:15;10.20;99.90
1179;DHT22;578;48.408;10.004;2022-10-18T02:14:44;10.20;99.90
1179;DHT22;578;48.408;10.004;2022-10-18T02:17:13;10.20;99.90
1179;DHT22;578;48.408;10.004;2022-10-18T02:19:43;10.20;99.90
1179;DHT22;578;48.408;10.004;2022-10-18T02:22:12;10.20;99.90
1179;DHT22;578;48.408;10.004;2022-10-18T02:24:43;10.30;99.90
1179;DHT22;578;48.408;10.004;2022-10-18T02:27:10;10.40;99.90
1179;DHT22;578;48.408;10.004;2022-10-18T02:29:38;10.30;99.90
1179;DHT22;578;48.408;10.004;2022-10-18T02:32:10;10.40;99.90
1179;DHT22;578;48.408;10.004;2022-10-18T02:34:42;10.50;99.90
1179;DHT22;578;48.408;10.004;2022-10-18T02:37:10;10.50;99.90
1179;DHT22;578;48.408;10.004;2022-10-18T02:39:42;10.40;99.90
1179;DHT22;578;48.408;10.004;2022-10-18T02:42:10;10.50;99.90
1179;DHT22;578;48.408;10.004;2022-10-18T02:44:38;10.50;99.90
1179;DHT22;578;48.408;10.004;2022-10-18T02:47:06;10.60;99.90
1179;DHT22;578;48.408;10.004;2022-10-18T02:49:33;10.60;99.90
1179;DHT22;578;48.408;10.004;2022-10-18T02:52:01;10.60;99.90
1179;DHT22;578;48.408;10.004;2022-10-18T02:54:28;10.70;99.90
1179;DHT22;578;48.408;10.004;2022-10-18T02:56:55;10.70;99.90
1179;DHT22;578;48.408;10.004;2022-10-18T02:59:21;10.70;99.90
1179;DHT22;578;48.408;10.004;2022-10-18T03:01:48;10.70;99.90
1179;DHT22;578;48.408;10.004;2022-10-18T03:04:15;10.80;99.90
1179;DHT22;578;48.408;10.004;2022-10-18T03:06:42;10.80;99.90
1179;DHT22;578;48.408;10.004;2022-10-18T03:09:10;10.80;99.90
1179;DHT22;578;48.408;10.004;2022-10-18T03:11:36;10.80;99.90
1179;DHT22;578;48.408;10.004;2022-10-18T03:14:03;10.80;99.90
1179;DHT22;578;48.408;10.004;2022-10-18T03:16:30;10.80;99.90
1179;DHT22;578;48.408;10.004;2022-10-18T03:18:58;10.90;99.90
1179;DHT22;578;48.408;10.004;2022-10-18T03:21:25;11.00;99.90
1179;DHT22;578;48.408;10.004;2022-10-18T03:23:51;11.00;99.90
1179;DHT22;578;48.408;10.004;2022-10-18T03:26:20;11.10;99.90
1179;DHT22;578;48.408;10.004;2022-10-18T03:28:46;11.20;99.90
1179;DHT22;578;48.408;10.004;2022-10-18T03:31:13;11.30;99.90
1179;DHT22;578;48.408;10.004;2022-10-18T03:33:40;11.20;99.90
1179;DHT22;578;48.408;10.004;2022-10-18T03:36:07;11.20;99.90
1179;DHT22;578;48.408;10.004;2022-10-18T03:38:33;11.20;99.90
1179;DHT22;578;48.408;10.004;2022-10-18T03:41:00;11.20;99.90
1179;DHT22;578;48.408;10.004;2022-10-18T03:43:28;11.30;99.90
1179;DHT22;578;48.408;10.004;2022-10-18T03:45:55;11.30;99.90
1179;DHT22;578;48.408;10.004;2022-10-18T03:48:22;11.30;99.90
1179;DHT22;578;48.408;10.004;2022-10-18T03:50:49;11.30;99.90
1179;DHT22;578;48.408;10.004;2022-10-18T03:53:15;11.30;99.90
1179;DHT22;578;48.408;10.004;2022-10-18T03:55:42;11.30;99.90
1179;DHT22;578;48.408;10.004;2022-10-18T03:58:09;11.20;99.90
1179;DHT22;578;48.408;10.004;2022-10-18T04:00:37;11.20;99.90
1179;DHT22;578;48.408;10.004;2022-10-18T04:03:04;11.10;99.90
1179;DHT22;578;48.408;10.004;2022-10-18T04:05:30;11.20;99.90
1179;DHT22;578;48.408;10.004;2022-10-18T04:07:58;11.10;99.90
1179;DHT22;578;48.408;10.004;2022-10-18T04:10:25;11.10;99.90
1179;DHT22;578;48.408;10.004;2022-10-18T04:12:52;11.00;99.90
1179;DHT22;578;48.408;10.004;2022-10-18T04:15:19;11.10;99.90
1179;DHT22;578;48.408;10.004;2022-10-18T04:17:47;11.10;99.90
1179;DHT22;578;48.408;10.004;2022-10-18T04:20:14;11.10;99.90
1179;DHT22;578;48.408;10.004;2022-10-18T04:22:41;11.10;99.90
1179;DHT22;578;48.408;10.004;2022-10-18T04:25:08;11.10;99.90
1179;DHT22;578;48.408;10.004;2022-10-18T04:27:35;11.20;99.90
1179;DHT22;578;48.408;10.004;2022-10-18T04:30:02;11.30;99.90
1179;DHT22;578;48.408;10.004;2022-10-18T04:32:29;11.20;99.90
1179;DHT22;578;48.408;10.004;2022-10-18T04:34:57;11.30;99.90
1179;DHT22;578;48.408;10.004;2022-10-18T04:37:23;11.30;99.90
1179;DHT22;578;48.408;10.004;2022-10-18T04:39:50;11.30;99.90
1179;DHT22;578;48.408;10.004;2022-10-18T04:42:17;11.40;99.90
1179;DHT22;578;48.408;10.004;2022-10-18T04:44:43;11.40;99.90
1179;DHT22;578;48.408;10.004;2022-10-18T04:47:10;11.40;99.90
1179;DHT22;578;48.408;10.004;2022-10-18T04:49:37;11.40;99.90
1179;DHT22;578;48.408;10.004;2022-10-18T04:52:05;11.50;99.90
1179;DHT22;578;48.408;10.004;2022-10-18T04:54:32;11.50;99.90
1179;DHT22;578;48.408;10.004;2022-10-18T04:56:59;11.50;99.90
1179;DHT22;578;48.408;10.004;2022-10-18T04:59:25;11.50;99.90
1179;DHT22;578;48.408;10.004;2022-10-18T05:01:52;11.60;99.90
1179;DHT22;578;48.408;10.004;2022-10-18T05:04:19;11.60;99.90
1179;DHT22;578;48.408;10.004;2022-10-18T05:06:46;11.60;99.90
1179;DHT22;578;48.408;10.004;2022-10-18T05:09:14;11.60;99.90
1179;DHT22;578;48.408;10.004;2022-10-18T05:11:40;11.60;99.90
1179;DHT22;578;48.408;10.004;2022-10-18T05:14:07;11.60;99.90
1179;DHT22;578;48.408;10.004;2022-10-18T05:16:34;11.60;99.90
1179;DHT22;578;48.408;10.004;2022-10-18T05:19:02;11.80;99.90
1179;DHT22;578;48.408;10.004;2022-10-18T05:21:29;11.80;99.90
1179;DHT22;578;48.408;10.004;2022-10-18T05:23:56;11.80;99.90
1179;DHT22;578;48.408;10.004;2022-10-18T05:26:24;11.90;99.90
1179;DHT22;578;48.408;10.004;2022-10-18T05:28:51;11.90;99.90
1179;DHT22;578;48.408;10.004;2022-10-18T05:31:18;12.00;99.90
1179;DHT22;578;48.408;10.004;2022-10-18T05:33:45;12.00;99.90
1179;DHT22;578;48.408;10.004;2022-10-18T05:36:12;12.00;99.90
1179;DHT22;578;48.408;10.004;2022-10-18T05:38:40;12.10;99.90
1179;DHT22;578;48.408;10.004;2022-10-18T05:41:07;12.10;99.90
1179;DHT22;578;48.408;10.004;2022-10-18T05:43:35;12.20;99.90
1179;DHT22;578;48.408;10.004;2022-10-18T05:46:02;12.20;99.90
1179;DHT22;578;48.408;10.004;2022-10-18T05:48:29;12.10;99.90
1179;DHT22;578;48.408;10.004;2022-10-18T05:50:57;12.20;99.90
1179;DHT22;578;48.408;10.004;2022-10-18T05:53:24;12.20;99.90
1179;DHT22;578;48.408;10.004;2022-10-18T05:55:51;12.20;99.90
1179;DHT22;578;48.408;10.004;2022-10-18T05:58:18;12.20;99.90
1179;DHT22;578;48.408;10.004;2022-10-18T06:00:46;12.30;99.90
1179;DHT22;578;48.408;10.004;2022-10-18T06:03:12;12.30;99.90
1179;DHT22;578;48.408;10.004;2022-10-18T06:05:39;12.30;99.90
1179;DHT22;578;48.408;10.004;2022-10-18T06:08:06;12.40;99.90
1179;DHT22;578;48.408;10.004;2022-10-18T06:10:32;12.50;99.90
1179;DHT22;578;48.408;10.004;2022-10-18T06:12:59;12.50;99.90
1179;DHT22;578;48.408;10.004;2022-10-18T06:15:26;12.70;99.90
1179;DHT22;578;48.408;10.004;2022-10-18T06:17:54;12.80;99.90
1179;DHT22;578;48.408;10.004;2022-10-18T06:20:21;13.00;99.90
1179;DHT22;578;48.408;10.004;2022-10-18T06:22:50;13.00;99.90
1179;DHT22;578;48.408;10.004;2022-10-18T06:25:18;13.00;99.90
1179;DHT22;578;48.408;10.004;2022-10-18T06:27:44;13.10;99.90
1179;DHT22;578;48.408;10.004;2022-10-18T06:30:11;13.10;99.90
1179;DHT22;578;48.408;10.004;2022-10-18T06:32:38;13.20;99.90
1179;DHT22;578;48.408;10.004;2022-10-18T06:35:07;13.30;99.90
1179;DHT22;578;48.408;10.004;2022-10-18T06:37:34;13.40;99.90
1179;DHT22;578;48.408;10.004;2022-10-18T06:40:03;13.40;99.90
1179;DHT22;578;48.408;10.004;2022-10-18T06:42:29;13.50;99.90
1179;DHT22;578;48.408;10.004;2022-10-18T06:44:57;13.70;99.90
1179;DHT22;578;48.408;10.004;2022-10-18T06:47:24;13.70;99.90
1179;DHT22;578;48.408;10.004;2022-10-18T06:49:51;13.70;99.90
1179;DHT22;578;48.408;10.004;2022-10-18T06:52:19;13.70;99.90
1179;DHT22;578;48.408;10.004;2022-10-18T06:54:50;13.70;99.90
1179;DHT22;578;48.408;10.004;2022-10-18T06:57:16;13.60;99.90
1179;DHT22;578;48.408;10.004;2022-10-18T06:59:43;13.50;99.90
1179;DHT22;578;48.408;10.004;2022-10-18T07:02:14;13.50;99.90
1179;DHT22;578;48.408;10.004;2022-10-18T07:04:41;13.40;99.90
1179;DHT22;578;48.408;10.004;2022-10-18T07:07:07;13.40;99.90
1179;DHT22;578;48.408;10.004;2022-10-18T07:09:36;13.60;99.90
1179;DHT22;578;48.408;10.004;2022-10-18T07:12:03;13.70;99.90
1179;DHT22;578;48.408;10.004;2022-10-18T07:14:30;13.80;99.90
1179;DHT22;578;48.408;10.004;2022-10-18T07:16:58;14.00;99.90
1179;DHT22;578;48.408;10.004;2022-10-18T07:19:25;14.20;99.90
1179;DHT22;578;48.408;10.004;2022-10-18T07:21:51;14.40;99.90
1179;DHT22;578;48.408;10.004;2022-10-18T07:24:18;14.60;99.90
1179;DHT22;578;48.408;10.004;2022-10-18T07:26:46;14.90;99.90
1179;DHT22;578;48.408;10.004;2022-10-18T07:29:13;16.50;99.90
1179;DHT22;578;48.408;10.004;2022-10-18T07:31:39;17.40;99.90
1179;DHT22;578;48.408;10.004;2022-10-18T07:34:09;17.60;99.90
1179;DHT22;578;48.408;10.004;2022-10-18T07:36:36;18.10;99.90
1179;DHT22;578;48.408;10.004;2022-10-18T07:39:03;18.50;99.90
1179;DHT22;578;48.408;10.004;2022-10-18T07:41:30;18.40;99.90
1179;DHT22;578;48.408;10.004;2022-10-18T07:44:00;18.60;99.90
1179;DHT22;578;48.408;10.004;2022-10-18T07:46:27;18.70;99.90
1179;DHT22;578;48.408;10.004;2022-10-18T07:48:54;19.30;99.90
1179;DHT22;578;48.408;10.004;2022-10-18T07:51:21;19.60;99.90
1179;DHT22;578;48.408;10.004;2022-10-18T07:53:48;19.90;99.90
1179;DHT22;578;48.408;10.004;2022-10-18T07:56:16;19.90;99.90
1179;DHT22;578;48.408;10.004;2022-10-18T07:58:46;20.10;99.90
1179;DHT22;578;48.408;10.004;2022-10-18T08:01:14;19.70;99.90
1179;DHT22;578;48.408;10.004;2022-10-18T08:03:42;20.30;99.90
1179;DHT22;578;48.408;10.004;2022-10-18T08:06:11;20.70;99.90
1179;DHT22;578;48.408;10.004;2022-10-18T08:08:39;20.80;99.90
1179;DHT22;578;48.408;10.004;2022-10-18T08:11:07;21.10;99.90
1179;DHT22;578;48.408;10.004;2022-10-18T08:13:34;20.90;99.90
1179;DHT22;578;48.408;10.004;2022-10-18T08:16:03;21.20;99.90
1179;DHT22;578;48.408;10.004;2022-10-18T08:18:31;21.30;99.90
1179;DHT22;578;48.408;10.004;2022-10-18T08:20:58;21.50;99.90
1179;DHT22;578;48.408;10.004;2022-10-18T08:23:25;21.60;99.70
1179;DHT22;578;48.408;10.004;2022-10-18T08:25:52;21.60;99.90
1179;DHT22;578;48.408;10.004;2022-10-18T08:28:19;21.30;98.90
1179;DHT22;578;48.408;10.004;2022-10-18T08:30:45;21.20;99.30
1179;DHT22;578;48.408;10.004;2022-10-18T08:33:12;21.00;99.60
1179;DHT22;578;48.408;10.004;2022-10-18T08:35:40;21.50;98.50
1179;DHT22;578;48.408;10.004;2022-10-18T08:38:07;21.00;99.90
1179;DHT22;578;48.408;10.004;2022-10-18T08:40:41;20.90;99.90
1179;DHT22;578;48.408;10.004;2022-10-18T08:43:14;21.20;99.90
1179;DHT22;578;48.408;10.004;2022-10-18T08:45:42;21.00;99.90
1179;DHT22;578;48.408;10.004;2022-10-18T08:48:18;21.20;98.80
1179;DHT22;578;48.408;10.004;2022-10-18T08:50:49;20.60;99.90
1179;DHT22;578;48.408;10.004;2022-10-18T08:53:19;20.70;99.90
1179;DHT22;578;48.408;10.004;2022-10-18T08:55:51;20.10;99.90
1179;DHT22;578;48.408;10.004;2022-10-18T08:58:21;20.40;99.90
1179;DHT22;578;48.408;10.004;2022-10-18T09:00:56;20.40;99.90
1179;DHT22;578;48.408;10.004;2022-10-18T09:06:34;19.80;99.90
1179;DHT22;578;48.408;10.004;2022-10-18T09:09:13;20.30;99.90
1179;DHT22;578;48.408;10.004;2022-10-18T09:11:49;20.20;99.90
1179;DHT22;578;48.408;10.004;2022-10-18T09:14:38;20.70;99.70
1179;DHT22;578;48.408;10.004;2022-10-18T09:17:14;20.60;99.90
1179;DHT22;578;48.408;10.004;2022-10-18T09:19:49;20.40;99.70
1179;DHT22;578;48.408;10.004;2022-10-18T09:22:27;20.60;99.90
1179;DHT22;578;48.408;10.004;2022-10-18T09:25:04;20.90;99.50
1179;DHT22;578;48.408;10.004;2022-10-18T09:27:42;20.90;99.50
1179;DHT22;578;48.408;10.004;2022-10-18T09:30:16;21.50;98.70
1179;DHT22;578;48.408;10.004;2022-10-18T09:32:51;21.80;97.10
1179;DHT22;578;48.408;10.004;2022-10-18T09:35:23;21.80;95.90
1179;DHT22;578;48.408;10.004;2022-10-18T09:37:58;21.70;96.50
1179;DHT22;578;48.408;10.004;2022-10-18T09:40:29;21.30;97.40
1179;DHT22;578;48.408;10.004;2022-10-18T09:43:02;21.40;98.00
1179;DHT22;578;48.408;10.004;2022-10-18T09:45:34;20.90;98.90
1179;DHT22;578;48.408;10.004;2022-10-18T09:48:06;20.50;99.70
1179;DHT22;578;48.408;10.004;2022-10-18T09:50:38;20.90;99.70
1179;DHT22;578;48.408;10.004;2022-10-18T09:53:14;20.90;99.70
1179;DHT22;578;48.408;10.004;2022-10-18T09:55:52;20.90;99.50
1179;DHT22;578;48.408;10.004;2022-10-18T09:58:22;20.60;99.90
1179;DHT22;578;48.408;10.004;2022-10-18T10:00:51;20.40;99.90
1179;DHT22;578;48.408;10.004;2022-10-18T10:03:18;20.80;99.90
1179;DHT22;578;48.408;10.004;2022-10-18T10:05:45;20.70;99.70
1179;DHT22;578;48.408;10.004;2022-10-18T10:08:13;20.80;99.90
1179;DHT22;578;48.408;10.004;2022-10-18T10:10:45;20.70;99.90
1179;DHT22;578;48.408;10.004;2022-10-18T10:13:15;20.60;99.90
1179;DHT22;578;48.408;10.004;2022-10-18T10:15:52;20.90;99.90
1179;DHT22;578;48.408;10.004;2022-10-18T10:18:20;20.80;99.90
1179;DHT22;578;48.408;10.004;2022-10-18T10:20:50;20.90;99.90
1179;DHT22;578;48.408;10.004;2022-10-18T10:23:21;21.00;99.90
1179;DHT22;578;48.408;10.004;2022-10-18T10:25:51;21.10;99.00
1179;DHT22;578;48.408;10.004;2022-10-18T10:28:20;21.00;98.60
1179;DHT22;578;48.408;10.004;2022-10-18T10:30:47;21.10;98.10
1179;DHT22;578;48.408;10.004;2022-10-18T10:33:32;21.10;99.40
1179;DHT22;578;48.408;10.004;2022-10-18T10:36:01;21.30;99.30
1179;DHT22;578;48.408;10.004;2022-10-18T10:38:30;21.00;99.40
1179;DHT22;578;48.408;10.004;2022-10-18T10:40:57;21.30;99.90
1179;DHT22;578;48.408;10.004;2022-10-18T10:43:26;21.40;97.80
1179;DHT22;578;48.408;10.004;2022-10-18T10:45:58;21.00;99.20
1179;DHT22;578;48.408;10.004;2022-10-18T10:48:26;20.90;98.90
1179;DHT22;578;48.408;10.004;2022-10-18T10:50:56;21.10;98.50
1179;DHT22;578;48.408;10.004;2022-10-18T10:53:37;20.90;97.40
1179;DHT22;578;48.408;10.004;2022-10-18T10:56:21;20.90;98.30
1179;DHT22;578;48.408;10.004;2022-10-18T10:58:50;21.00;99.10
1179;DHT22;578;48.408;10.004;2022-10-18T11:01:24;21.50;96.90
1179;DHT22;578;48.408;10.004;2022-10-18T11:03:53;21.40;97.40
1179;DHT22;578;48.408;10.004;2022-10-18T11:09:47;21.70;97.50
1179;DHT22;578;48.408;10.004;2022-10-18T11:12:27;22.50;94.60
1179;DHT22;578;48.408;10.004;2022-10-18T11:15:06;22.60;94.10
1179;DHT22;578;48.408;10.004;2022-10-18T11:17:41;22.50;94.00
1179;DHT22;578;48.408;10.004;2022-10-18T11:20:20;22.60;94.70
1179;DHT22;578;48.408;10.004;2022-10-18T11:22:56;22.80;93.80
1179;DHT22;578;48.408;10.004;2022-10-18T11:25:33;23.10;93.10
1179;DHT22;578;48.408;10.004;2022-10-18T11:28:10;22.70;93.90
1179;DHT22;578;48.408;10.004;2022-10-18T11:30:47;22.20;95.30
1179;DHT22;578;48.408;10.004;2022-10-18T11:33:22;21.70;95.90
1179;DHT22;578;48.408;10.004;2022-10-18T11:35:55;21.50;96.90
1179;DHT22;578;48.408;10.004;2022-10-18T11:38:31;21.30;98.10
1179;DHT22;578;48.408;10.004;2022-10-18T11:41:17;21.20;99.90
1179;DHT22;578;48.408;10.004;2022-10-18T11:43:50;21.20;99.70
1179;DHT22;578;48.408;10.004;2022-10-18T11:46:21;21.10;99.40
1179;DHT22;578;48.408;10.004;2022-10-18T11:49:02;21.30;99.90
1179;DHT22;578;48.408;10.004;2022-10-18T11:51:39;21.50;99.20
1179;DHT22;578;48.408;10.004;2022-10-18T11:54:29;21.60;98.90
1179;DHT22;578;48.408;10.004;2022-10-18T11:57:06;21.90;97.80
1179;DHT22;578;48.408;10.004;2022-10-18T11:59:37;22.40;96.50
1179;DHT22;578;48.408;10.004;2022-10-18T12:02:39;22.50;96.40
1179;DHT22;578;48.408;10.004;2022-10-18T12:05:09;22.50;94.10
1179;DHT22;578;48.408;10.004;2022-10-18T12:07:39;22.20;95.50
1179;DHT22;578;48.408;10.004;2022-10-18T12:10:13;22.40;95.80
1179;DHT22;578;48.408;10.004;2022-10-18T12:12:51;22.70;95.10
1179;DHT22;578;48.408;10.004;2022-10-18T12:15:21;22.70;94.60
1179;DHT22;578;48.408;10.004;2022-10-18T12:17:51;22.80;94.10
1179;DHT22;578;48.408;10.004;2022-10-18T12:20:24;22.80;94.00
1179;DHT22;578;48.408;10.004;2022-10-18T12:22:58;22.60;94.00
1179;DHT22;578;48.408;10.004;2022-10-18T12:25:27;22.80;93.80
1179;DHT22;578;48.408;10.004;2022-10-18T12:28:01;22.90;93.60
1179;DHT22;578;48.408;10.004;2022-10-18T12:30:38;22.70;94.90
1179;DHT22;578;48.408;10.004;2022-10-18T12:33:10;22.50;94.00
1179;DHT22;578;48.408;10.004;2022-10-18T12:35:47;22.40;94.50
1179;DHT22;578;48.408;10.004;2022-10-18T12:38:19;22.50;94.90
1179;DHT22;578;48.408;10.004;2022-10-18T12:40:49;22.40;94.80
1179;DHT22;578;48.408;10.004;2022-10-18T12:43:22;22.30;95.50
1179;DHT22;578;48.408;10.004;2022-10-18T12:45:52;22.20;95.40
1179;DHT22;578;48.408;10.004;2022-10-18T12:48:32;22.20;95.50
1179;DHT22;578;48.408;10.004;2022-10-18T12:51:04;22.20;95.20
1179;DHT22;578;48.408;10.004;2022-10-18T12:53:31;22.20;94.00
1179;DHT22;578;48.408;10.004;2022-10-18T12:56:32;22.20;95.00
1179;DHT22;578;48.408;10.004;2022-10-18T13:02:31;22.10;98.00
1179;DHT22;578;48.408;10.004;2022-10-18T13:04:58;21.50;96.60
1179;DHT22;578;48.408;10.004;2022-10-18T13:07:38;21.20;96.50
1179;DHT22;578;48.408;10.004;2022-10-18T13:10:37;20.90;97.60
1179;DHT22;578;48.408;10.004;2022-10-18T13:13:19;20.70;96.30
1179;DHT22;578;48.408;10.004;2022-10-18T13:15:52;20.60;97.10
1179;DHT22;578;48.408;10.004;2022-10-18T13:18:25;20.90;94.90
1179;DHT22;578;48.408;10.004;2022-10-18T13:21:00;21.00;96.30
1179;DHT22;578;48.408;10.004;2022-10-18T13:23:41;20.80;97.40
1179;DHT22;578;48.408;10.004;2022-10-18T13:26:18;20.70;97.60
1179;DHT22;578;48.408;10.004;2022-10-18T13:28:54;21.00;94.20
1179;DHT22;578;48.408;10.004;2022-10-18T13:31:33;21.20;91.30
1179;DHT22;578;48.408;10.004;2022-10-18T13:37:00;21.30;91.70
1179;DHT22;578;48.408;10.004;2022-10-18T13:39:28;21.10;94.70
1179;DHT22;578;48.408;10.004;2022-10-18T13:42:18;20.90;92.90
1179;DHT22;578;48.408;10.004;2022-10-18T13:44:45;20.80;96.60
1179;DHT22;578;48.408;10.004;2022-10-18T13:47:14;20.90;95.80
1179;DHT22;578;48.408;10.004;2022-10-18T13:50:01;20.70;97.70
1179;DHT22;578;48.408;10.004;2022-10-18T13:52:41;20.60;95.70
1179;DHT22;578;48.408;10.004;2022-10-18T13:55:33;20.50;96.70
1179;DHT22;578;48.408;10.004;2022-10-18T13:58:08;20.70;97.80
1179;DHT22;578;48.408;10.004;2022-10-18T14:04:00;21.10;96.50
1179;DHT22;578;48.408;10.004;2022-10-18T14:06:35;21.20;94.80
1179;DHT22;578;48.408;10.004;2022-10-18T14:09:10;21.20;93.20
1179;DHT22;578;48.408;10.004;2022-10-18T14:11:40;21.30;93.50
1179;DHT22;578;48.408;10.004;2022-10-18T14:14:16;21.10;93.90
1179;DHT22;578;48.408;10.004;2022-10-18T14:16:48;20.80;94.40
1179;DHT22;578;48.408;10.004;2022-10-18T14:19:27;20.90;95.40
1179;DHT22;578;48.408;10.004;2022-10-18T14:22:08;20.70;95.30
1179;DHT22;578;48.408;10.004;2022-10-18T14:24:38;20.70;94.60
1179;DHT22;578;48.408;10.004;2022-10-18T14:27:10;20.70;97.50
1179;DHT22;578;48.408;10.004;2022-10-18T14:29:38;21.00;94.80
1179;DHT22;578;48.408;10.004;2022-10-18T14:32:09;20.90;94.40
1179;DHT22;578;48.408;10.004;2022-10-18T14:34:36;20.60;95.90
1179;DHT22;578;48.408;10.004;2022-10-18T14:37:03;20.40;96.90
1179;DHT22;578;48.408;10.004;2022-10-18T14:39:29;20.20;98.10
1179;DHT22;578;48.408;10.004;2022-10-18T14:41:59;20.10;98.20
1179;DHT22;578;48.408;10.004;2022-10-18T14:44:28;20.00;99.30
1179;DHT22;578;48.408;10.004;2022-10-18T14:47:00;20.10;98.30
1179;DHT22;578;48.408;10.004;2022-10-18T14:49:27;20.00;99.90
1179;DHT22;578;48.408;10.004;2022-10-18T14:51:56;20.00;99.90
1179;DHT22;578;48.408;10.004;2022-10-18T14:54:30;19.70;99.90
1179;DHT22;578;48.408;10.004;2022-10-18T14:56:59;19.60;99.90
1179;DHT22;578;48.408;10.004;2022-10-18T14:59:29;19.40;99.90
1179;DHT22;578;48.408;10.004;2022-10-18T15:01:59;19.50;99.90
1179;DHT22;578;48.408;10.004;2022-10-18T15:04:27;19.50;99.90
1179;DHT22;578;48.408;10.004;2022-10-18T15:06:58;19.50;99.90
1179;DHT22;578;48.408;10.004;2022-10-18T15:09:26;19.50;99.90
1179;DHT22;578;48.408;10.004;2022-10-18T15:11:53;19.60;99.90
1179;DHT22;578;48.408;10.004;2022-10-18T15:14:25;19.60;99.90
1179;DHT22;578;48.408;10.004;2022-10-18T15:16:57;19.40;99.90
1179;DHT22;578;48.408;10.004;2022-10-18T15:19:28;19.40;99.90
1179;DHT22;578;48.408;10.004;2022-10-18T15:21:57;19.30;99.90
1179;DHT22;578;48.408;10.004;2022-10-18T15:24:29;19.20;99.90
1179;DHT22;578;48.408;10.004;2022-10-18T15:27:00;19.30;99.90
1179;DHT22;578;48.408;10.004;2022-10-18T15:29:30;19.10;99.90
1179;DHT22;578;48.408;10.004;2022-10-18T15:32:06;18.90;99.90
1179;DHT22;578;48.408;10.004;2022-10-18T15:34:34;18.80;99.90
1179;DHT22;578;48.408;10.004;2022-10-18T15:37:15;18.90;99.90
1179;DHT22;578;48.408;10.004;2022-10-18T15:39:42;18.70;99.90
1179;DHT22;578;48.408;10.004;2022-10-18T15:42:34;18.60;99.90
1179;DHT22;578;48.408;10.004;2022-10-18T15:45:31;18.40;99.90
1179;DHT22;578;48.408;10.004;2022-10-18T15:48:15;18.40;99.90
1179;DHT22;578;48.408;10.004;2022-10-18T15:50:44;18.10;99.90
1179;DHT22;578;48.408;10.004;2022-10-18T15:53:40;18.20;99.90
1179;DHT22;578;48.408;10.004;2022-10-18T15:56:11;18.10;99.90
1179;DHT22;578;48.408;10.004;2022-10-18T15:58:40;18.10;99.90
1179;DHT22;578;48.408;10.004;2022-10-18T16:01:14;17.80;99.90
1179;DHT22;578;48.408;10.004;2022-10-18T16:03:42;17.60;99.90
1179;DHT22;578;48.408;10.004;2022-10-18T16:06:10;17.40;99.90
1179;DHT22;578;48.408;10.004;2022-10-18T16:08:39;17.40;99.90
1179;DHT22;578;48.408;10.004;2022-10-18T16:11:07;17.30;99.90
1179;DHT22;578;48.408;10.004;2022-10-18T16:13:34;17.20;99.90
1179;DHT22;578;48.408;10.004;2022-10-18T16:16:01;17.20;99.90
1179;DHT22;578;48.408;10.004;2022-10-18T16:18:29;16.90;99.90
1179;DHT22;578;48.408;10.004;2022-10-18T16:20:55;16.80;99.90
1179;DHT22;578;48.408;10.004;2022-10-18T16:23:24;16.80;99.90
1179;DHT22;578;48.408;10.004;2022-10-18T16:25:53;16.70;99.90
1179;DHT22;578;48.408;10.004;2022-10-18T16:28:21;16.50;99.90
1179;DHT22;578;48.408;10.004;2022-10-18T16:30:53;16.40;99.90
1179;DHT22;578;48.408;10.004;2022-10-18T16:33:20;16.50;99.90
1179;DHT22;578;48.408;10.004;2022-10-18T16:35:49;16.30;99.90
1179;DHT22;578;48.408;10.004;2022-10-18T16:38:23;16.40;99.90
1179;DHT22;578;48.408;10.004;2022-10-18T16:40:50;16.20;99.90
1179;DHT22;578;48.408;10.004;2022-10-18T16:43:17;16.30;99.90